PDT,Max TemperatureF,Mean TemperatureF,Min TemperatureF,Max Dew PointF,MeanDew PointF,Min DewpointF,Max Humidity, Mean Humidity, Min Humidity, Max Sea Level PressureIn, Mean Sea Level PressureIn, Min Sea Level PressureIn, Max VisibilityMiles, Mean VisibilityMiles, Min VisibilityMiles, Max Wind SpeedMPH, Mean Wind SpeedMPH, Max Gust SpeedMPH,PrecipitationIn, CloudCover, Events, WindDirDegrees
2012-10-1,66,56,47,57,50,45,93,76,45,30.38,30.18,30.00,9,8,5,24,7,39,0.00,5,Rain,275
2012-10-2,63,56,49,52,40,25,77,57,28,30.40,30.21,30.06,9,9,9,16,9,28,0.00,5,Rain,286
2012-10-3,66,52,39,34,31,27,62,41,15,30.53,30.42,30.32,9,9,9,10,6,,0.00,0,,111
2012-10-4,68,56,43,34,29,23,57,37,12,30.42,30.35,30.27,9,9,5,12,7,,0.00,0,,96
2012-10-5,70,56,43,34,31,28,66,39,14,30.43,30.34,30.26,9,9,9,12,7,17,0.00,0,,94
2012-10-6,76,60,44,45,37,32,72,47,18,30.36,30.26,30.13,9,9,9,12,8,18,0.00,0,,92
2012-10-7,74,61,48,46,42,39,82,55,21,30.17,30.06,29.92,9,9,9,14,10,,0.00,0,,101
2012-10-8,75,62,48,48,44,39,82,58,19,30.02,29.96,29.89,9,9,8,15,9,,0.00,0,,102
2012-10-9,64,54,45,50,46,42,93,73,44,30.12,30.06,30.01,9,8,2,13,8,20,0.00,0,,227
2012-10-10,59,48,38,50,45,41,100,92,61,30.05,30.02,29.96,9,3,0,15,4,24,0.00,2,Fog,160
2012-10-11,63,54,44,49,46,42,94,79,48,30.03,29.91,29.79,9,7,2,12,8,,0.00,3,,116
2012-10-12,52,51,50,50,49,46,97,91,82,29.94,29.87,29.79,9,4,2,13,6,22,0.16,8,Rain,266
2012-10-13,57,54,50,56,53,50,100,95,88,30.08,30.01,29.93,9,6,2,14,6,20,0.12,8,Rain,233
2012-10-14,58,56,54,57,56,54,100,96,88,30.02,29.88,29.80,9,7,2,14,6,18,0.55,8,Rain,251
2012-10-15,61,56,51,55,52,50,100,92,65,29.91,29.63,29.44,9,6,2,18,9,28,0.43,7,Rain,254
2012-10-16,59,54,48,54,45,37,88,72,40,30.18,29.84,29.45,9,8,3,25,14,45,0.16,8,Rain,276
2012-10-17,56,51,46,45,43,41,87,74,58,30.32,30.26,30.20,9,9,5,12,8,24,0.00,7,,263
2012-10-18,54,50,46,50,47,43,100,91,62,30.24,29.89,29.72,9,5,2,12,6,,0.94,8,Rain,131
2012-10-19,59,52,46,56,50,43,100,92,69,29.76,29.66,29.59,9,7,2,24,9,39,0.67,8,Rain,257
2012-10-20,48,44,39,43,39,34,100,79,58,29.87,29.80,29.71,9,9,5,22,10,37,0.08,7,Rain,276
2012-10-21,46,42,39,41,39,37,100,92,81,29.90,29.88,29.86,9,9,5,12,5,,0.12,7,Rain,102
2012-10-22,49,42,36,37,34,32,93,68,43,29.89,29.73,29.64,9,9,9,20,10,29,0.00,6,Rain,103
2012-10-23,43,42,41,36,33,30,81,66,51,29.98,29.86,29.68,9,9,9,15,10,24,0.01,8,Rain,132
2012-10-24,44,42,39,36,32,27,87,69,48,30.25,30.12,29.98,9,9,9,16,11,22,0.00,7,Rain,105
2012-10-25,49,44,38,39,36,33,93,79,48,30.44,30.37,30.25,9,9,8,8,5,,0.00,7,Rain,82
2012-10-26,44,42,40,41,40,37,97,90,85,30.39,30.22,30.06,9,9,5,13,8,,0.08,8,Rain,100
2012-10-27,45,43,41,45,42,41,100,95,93,30.06,29.95,29.75,9,7,2,10,6,,0.20,8,Rain,104
2012-10-28,55,50,44,50,48,44,100,89,74,29.91,29.86,29.78,9,7,2,13,6,25,0.43,7,Rain,268
2012-10-29,58,52,45,53,47,45,100,93,77,29.92,29.82,29.74,9,6,1,17,7,28,0.87,8,Rain,135
2012-10-30,54,50,46,52,49,45,100,94,87,29.93,29.88,29.85,9,8,5,16,5,23,0.47,8,Rain,109
2012-10-31,48,46,44,45,43,43,100,87,75,29.85,29.74,29.67,9,8,5,16,12,21,0.24,8,Rain,105